Time;durP1;ratioP1;P1;durP2;ratioP2;P2;SDS_P1;SDS_P2;PMS_P1;PMS_P2;Temp;Humidity;BMP_temperature;BMP_pressure;BME280_temperature;BME280_humidity;BME280_pressure;Samples;Min_cycle;Max_cycle;Signal;HPM_P1;HPM_P2
2022/03/29 00:02:19;;;;;;;75.20;54.00;;;;;;;5.69;100.00;162055.00;5071751;28;20041;-61
2022/03/29 00:04:45;;;;;;;81.30;55.05;;;;;;;5.72;100.00;162061.72;5073497;28;20162;-61
2022/03/29 00:07:10;;;;;;;80.63;54.22;;;;;;;5.71;100.00;162059.00;5071728;28;20511;-60
2022/03/29 00:09:36;;;;;;;79.38;55.78;;;;;;;5.68;100.00;162052.28;5073341;28;20027;-61
2022/03/29 00:12:01;;;;;;;79.78;59.92;;;;;;;5.71;100.00;162060.34;5071773;28;20493;-61
2022/03/29 00:14:26;;;;;;;80.82;54.38;;;;;;;5.75;100.00;162069.75;5073222;28;20057;-61
2022/03/29 00:16:53;;;;;;;75.80;52.67;;;;;;;5.79;100.00;162079.16;5071757;28;20515;-61
2022/03/29 00:19:19;;;;;;;81.28;54.95;;;;;;;5.61;100.00;162033.47;5073263;28;20044;-60
2022/03/29 00:21:45;;;;;;;78.10;53.05;;;;;;;5.62;100.00;162036.09;5071763;28;20191;-60
2022/03/29 00:24:10;;;;;;;81.18;54.67;;;;;;;5.70;100.00;162057.63;5072853;28;20426;-60
2022/03/29 00:26:36;;;;;;;87.25;56.08;;;;;;;5.73;100.00;162064.41;5071433;28;20119;-60
2022/03/29 00:29:02;;;;;;;91.85;59.25;;;;;;;5.68;100.00;162052.28;5072107;28;20404;-60
2022/03/29 00:31:27;;;;;;;90.70;61.42;;;;;;;5.79;100.00;162080.53;5069967;28;20049;-60
2022/03/29 00:33:52;;;;;;;82.03;59.70;;;;;;;5.80;100.00;162081.88;5072995;28;20043;-60
2022/03/29 00:36:18;;;;;;;95.88;61.85;;;;;;;5.76;100.00;162072.44;5070071;28;20040;-62
2022/03/29 00:38:46;;;;;;;86.03;58.00;;;;;;;5.78;100.00;162076.47;5072707;28;20027;-62
2022/03/29 00:41:12;;;;;;;79.05;53.40;;;;;;;5.70;100.00;162056.31;5071008;28;20416;-62
2022/03/29 00:43:37;;;;;;;105.65;57.22;;;;;;;5.84;100.00;162092.66;5072852;28;20035;-62
2022/03/29 00:46:03;;;;;;;79.75;57.92;;;;;;;5.82;100.00;162087.25;5071198;28;20047;-62
2022/03/29 00:48:29;;;;;;;72.72;51.97;;;;;;;5.82;100.00;162087.25;5072558;28;20027;-62
2022/03/29 00:50:56;;;;;;;87.15;55.53;;;;;;;5.76;100.00;162072.44;5071374;28;20020;-62
2022/03/29 00:53:22;;;;;;;80.38;54.20;;;;;;;5.83;100.00;162089.97;5072128;28;20490;-62
2022/03/29 00:55:48;;;;;;;73.40;51.33;;;;;;;5.76;100.00;162072.44;5072334;28;20040;-60
2022/03/29 00:58:15;;;;;;;69.72;52.72;;;;;;;5.74;100.00;162065.72;5071079;28;20036;-60
2022/03/29 01:00:41;;;;;;;81.05;55.13;;;;;;;5.76;100.00;162071.13;5072232;28;20028;-60
2022/03/29 01:03:07;;;;;;;75.00;51.05;;;;;;;5.69;100.00;162055.00;5070760;28;20059;-61
2022/03/29 01:05:33;;;;;;;81.82;55.17;;;;;;;5.85;100.00;162095.31;5072589;28;20040;-61
2022/03/29 01:07:59;;;;;;;76.18;51.83;;;;;;;5.76;100.00;162071.13;5070367;28;20048;-61
2022/03/29 01:10:25;;;;;;;77.07;50.45;;;;;;;5.90;100.00;162108.81;5072132;28;20024;-61
2022/03/29 01:12:51;;;;;;;77.35;52.47;;;;;;;5.93;100.00;162116.84;5070951;28;20048;-61
2022/03/29 01:15:19;;;;;;;75.82;53.90;;;;;;;5.92;100.00;162114.16;5071820;28;20020;-61
2022/03/29 01:17:46;;;;;;;78.68;48.00;;;;;;;5.90;100.00;162108.81;5070577;28;20036;-63
2022/03/29 01:20:27;;;;;;;78.80;51.80;;;;;;;5.92;100.00;162114.16;5071874;28;20037;-63
2022/03/29 01:22:53;;;;;;;74.63;51.60;;;;;;;5.67;100.00;162049.59;5070261;28;20124;-63
2022/03/29 01:25:22;;;;;;;77.15;53.22;;;;;;;5.80;100.00;162081.88;5071865;28;20020;-62
2022/03/29 01:27:49;;;;;;;77.88;54.05;;;;;;;5.72;100.00;162063.03;5070722;28;20038;-62
2022/03/29 01:30:16;;;;;;;73.13;48.83;;;;;;;5.85;100.00;162095.31;5071053;28;20032;-63
2022/03/29 01:32:45;;;;;;;72.43;49.92;;;;;;;5.82;100.00;162087.25;5070337;28;20119;-62
2022/03/29 01:35:11;;;;;;;69.38;50.17;;;;;;;5.90;100.00;162107.41;5071345;28;20033;-62
2022/03/29 01:37:37;;;;;;;71.07;47.92;;;;;;;5.83;100.00;162091.28;5070210;28;20444;-62
2022/03/29 01:40:12;;;;;;;64.80;47.13;;;;;;;5.81;100.00;162085.88;5071586;28;20028;-63
2022/03/29 01:42:38;;;;;;;85.63;48.63;;;;;;;5.76;100.00;162071.13;5070249;28;20059;-63
2022/03/29 01:45:03;;;;;;;65.40;48.13;;;;;;;5.76;100.00;162071.13;5071421;28;20636;-63
2022/03/29 01:47:29;;;;;;;77.97;53.75;;;;;;;5.86;100.00;162099.38;5070040;28;20101;-63
2022/03/29 01:49:55;;;;;;;71.22;47.25;;;;;;;5.87;100.00;162100.72;5071264;28;20035;-63
2022/03/29 01:52:20;;;;;;;69.50;44.83;;;;;;;5.89;100.00;162106.09;5069784;28;20037;-63
2022/03/29 01:54:46;;;;;;;67.78;47.95;;;;;;;5.75;100.00;162068.44;5071314;28;20020;-62
2022/03/29 01:57:12;;;;;;;64.50;45.17;;;;;;;5.86;100.00;162099.38;5070005;28;20052;-62
2022/03/29 02:02:22;;;;;;;69.72;46.28;;;;;;;5.72;100.00;162063.03;5069390;28;20098;-62
2022/03/29 02:04:47;;;;;;;77.60;49.47;;;;;;;5.83;100.00;162089.97;5071399;28;20111;-62
2022/03/29 02:07:13;;;;;;;68.40;45.38;;;;;;;5.84;100.00;162092.66;5069348;28;20052;-62
2022/03/29 02:09:38;;;;;;;72.05;48.65;;;;;;;5.85;100.00;162095.31;5071542;28;20035;-62
2022/03/29 02:12:05;;;;;;;68.63;44.92;;;;;;;5.72;100.00;162063.03;5069616;28;20522;-62
2022/03/29 02:14:30;;;;;;;74.15;46.05;;;;;;;5.63;100.00;162038.81;5070688;28;20467;-62
2022/03/29 02:16:56;;;;;;;73.97;48.03;;;;;;;5.61;100.00;162033.47;5069335;28;20044;-62
2022/03/29 02:19:21;;;;;;;79.07;51.88;;;;;;;5.60;100.00;162029.38;5070940;28;20024;-62
2022/03/29 02:21:46;;;;;;;75.20;49.70;;;;;;;5.51;100.00;162006.53;5069770;28;20032;-62
2022/03/29 02:24:12;;;;;;;65.25;47.10;;;;;;;5.68;100.00;162050.91;5070573;28;20467;-62
2022/03/29 02:26:37;;;;;;;76.15;45.40;;;;;;;5.65;100.00;162042.88;5069851;28;20032;-62
2022/03/29 02:29:03;;;;;;;68.28;44.35;;;;;;;5.63;100.00;162038.81;5070733;28;20025;-62
2022/03/29 02:31:28;;;;;;;70.00;46.67;;;;;;;5.60;100.00;162030.75;5069078;28;20113;-62
2022/03/29 02:33:53;;;;;;;72.32;48.47;;;;;;;5.61;100.00;162033.47;5071033;28;20383;-62
2022/03/29 02:36:19;;;;;;;68.88;50.60;;;;;;;5.69;100.00;162055.00;5068082;28;20033;-62
2022/03/29 02:38:44;;;;;;;69.82;45.63;;;;;;;5.72;100.00;162063.03;5070811;28;20021;-62
2022/03/29 02:41:09;;;;;;;68.38;46.67;;;;;;;5.76;100.00;162071.13;5069355;28;20016;-62
2022/03/29 02:43:35;;;;;;;67.93;43.45;;;;;;;5.80;100.00;162081.88;5070805;28;20411;-61
2022/03/29 02:46:00;;;;;;;65.60;44.10;;;;;;;5.84;100.00;162092.66;5069166;28;20020;-61
2022/03/29 02:48:26;;;;;;;72.57;47.25;;;;;;;5.87;100.00;162102.06;5070775;28;20021;-63
2022/03/29 02:50:51;;;;;;;69.53;46.83;;;;;;;5.85;100.00;162095.31;5071592;28;20503;-63
2022/03/29 02:53:17;;;;;;;67.13;45.17;;;;;;;5.75;100.00;162068.44;5073062;28;20032;-63
2022/03/29 02:55:42;;;;;;;58.60;42.25;;;;;;;5.74;100.00;162065.72;5074991;28;20033;-61
2022/03/29 02:58:08;;;;;;;67.38;47.92;;;;;;;5.71;100.00;162060.34;5072973;28;20040;-61
2022/03/29 03:00:33;;;;;;;64.80;45.70;;;;;;;5.78;100.00;162076.47;5074594;28;20093;-61
2022/03/29 03:03:00;;;;;;;73.45;49.42;;;;;;;5.79;100.00;162080.53;5073323;28;20032;-61
2022/03/29 03:05:25;;;;;;;95.10;49.60;;;;;;;5.63;100.00;162037.47;5074612;28;20055;-62
2022/03/29 03:07:51;;;;;;;73.95;53.17;;;;;;;5.79;100.00;162080.53;5072896;28;20495;-61
2022/03/29 03:10:17;;;;;;;71.65;48.08;;;;;;;5.86;100.00;162098.00;5074282;28;20024;-61
2022/03/29 03:12:44;;;;;;;68.18;49.45;;;;;;;5.86;100.00;162098.00;5073149;28;20090;-61
2022/03/29 03:15:12;;;;;;;65.88;44.47;;;;;;;5.89;100.00;162106.09;5073927;28;20025;-61
2022/03/29 03:17:38;;;;;;;66.85;43.53;;;;;;;5.90;100.00;162107.41;5073228;28;20565;-61
2022/03/29 03:20:05;;;;;;;66.97;48.90;;;;;;;5.87;100.00;162102.06;5074366;28;20032;-61
2022/03/29 03:22:31;;;;;;;71.22;49.78;;;;;;;5.72;100.00;162063.03;5072422;28;20047;-63
2022/03/29 03:24:57;;;;;;;64.47;45.20;;;;;;;5.84;100.00;162092.66;5074228;28;20032;-63
2022/03/29 03:27:22;;;;;;;61.00;43.60;;;;;;;5.85;100.00;162095.31;5072414;28;20047;-63
2022/03/29 03:29:47;;;;;;;65.72;46.03;;;;;;;5.86;100.00;162098.00;5073992;28;20025;-63
2022/03/29 03:32:14;;;;;;;59.28;41.10;;;;;;;5.84;100.00;162093.97;5072572;28;20047;-63
2022/03/29 03:34:40;;;;;;;59.85;44.70;;;;;;;5.84;100.00;162092.66;5074215;28;20024;-62
2022/03/29 03:37:05;;;;;;;60.83;39.72;;;;;;;5.81;100.00;162084.56;5072474;28;20037;-62
2022/03/29 03:39:34;;;;;;;65.72;49.45;;;;;;;5.70;100.00;162057.63;5073872;28;20434;-61
2022/03/29 03:42:03;;;;;;;64.78;44.80;;;;;;;5.71;100.00;162059.00;5072531;28;20079;-61
2022/03/29 03:44:29;;;;;;;62.70;47.45;;;;;;;5.79;100.00;162079.16;5073425;28;20129;-62
2022/03/29 03:46:54;;;;;;;59.83;40.70;;;;;;;5.81;100.00;162085.88;5072682;28;20036;-61
2022/03/29 03:49:20;;;;;;;58.70;42.17;;;;;;;5.85;100.00;162095.31;5073805;28;20376;-61
2022/03/29 03:51:45;;;;;;;63.20;38.55;;;;;;;5.83;100.00;162091.28;5072287;28;20442;-61
2022/03/29 03:54:10;;;;;;;58.60;38.17;;;;;;;5.80;100.00;162081.88;5073116;28;20024;-61
2022/03/29 03:56:36;;;;;;;57.55;39.88;;;;;;;5.83;100.00;162091.28;5072392;28;20074;-62
2022/03/29 03:59:02;;;;;;;56.17;40.60;;;;;;;5.85;100.00;162095.31;5073435;28;20472;-62
2022/03/29 04:01:27;;;;;;;67.72;40.40;;;;;;;5.92;100.00;162114.16;5071851;28;20040;-62
2022/03/29 04:03:53;;;;;;;56.47;37.25;;;;;;;5.84;100.00;162092.66;5073735;28;20029;-62
2022/03/29 04:06:18;;;;;;;58.13;38.70;;;;;;;5.79;100.00;162079.16;5071679;28;20037;-62
2022/03/29 04:08:43;;;;;;;68.75;45.55;;;;;;;5.66;100.00;162045.56;5073120;28;20491;-62
2022/03/29 04:11:09;;;;;;;59.63;41.70;;;;;;;5.63;100.00;162037.47;5072039;28;20021;-59
2022/03/29 04:13:34;;;;;;;66.97;44.35;;;;;;;5.78;100.00;162077.84;5072864;28;20775;-60
2022/03/29 04:16:00;;;;;;;58.05;39.08;;;;;;;5.71;100.00;162060.34;5070349;28;20024;-60
2022/03/29 04:18:25;;;;;;;62.72;41.28;;;;;;;5.79;100.00;162080.53;5073288;28;20025;-60
2022/03/29 04:20:51;;;;;;;54.45;35.50;;;;;;;5.82;100.00;162087.25;5072433;28;20032;-60
2022/03/29 04:23:16;;;;;;;59.70;41.20;;;;;;;5.79;100.00;162079.16;5065437;28;20404;-60
2022/03/29 04:25:41;;;;;;;59.22;38.53;;;;;;;5.76;100.00;162071.13;5064478;28;20021;-59
2022/03/29 04:28:07;;;;;;;57.80;38.17;;;;;;;5.76;100.00;162071.13;5065467;28;20067;-60
2022/03/29 04:30:32;;;;;;;52.90;34.92;;;;;;;5.74;100.00;162065.72;5073129;28;20082;-60
2022/03/29 04:32:58;;;;;;;50.03;35.60;;;;;;;5.67;100.00;162049.59;5070453;28;20036;-59
2022/03/29 04:35:23;;;;;;;60.60;38.72;;;;;;;5.59;100.00;162028.06;5072509;28;20032;-59
2022/03/29 04:37:48;;;;;;;53.22;38.38;;;;;;;5.57;100.00;162022.66;5071759;28;20048;-59
2022/03/29 04:40:14;;;;;;;51.45;35.20;;;;;;;5.48;100.00;161999.81;5072054;28;20029;-59
2022/03/29 04:42:44;;;;;;;54.00;36.85;;;;;;;5.39;100.00;161975.59;5069992;28;20071;-58
2022/03/29 04:45:09;;;;;;;47.45;32.97;;;;;;;5.30;100.00;161951.34;5072435;28;20099;-59
2022/03/29 04:47:35;;;;;;;54.83;35.22;;;;;;;5.22;100.00;161931.19;5071597;28;20178;-59
2022/03/29 04:50:00;;;;;;;53.97;36.97;;;;;;;5.20;100.00;161925.81;5072675;28;20107;-59
2022/03/29 04:52:26;;;;;;;55.20;33.08;;;;;;;5.22;100.00;161931.19;5070710;28;20048;-58
2022/03/29 04:54:52;;;;;;;52.92;34.97;;;;;;;5.24;100.00;161937.91;5072574;28;20387;-58
2022/03/29 04:57:17;;;;;;;50.20;37.45;;;;;;;5.22;100.00;161931.19;5071033;28;20191;-59
2022/03/29 04:59:43;;;;;;;58.53;38.30;;;;;;;5.25;100.00;161939.25;5072415;28;20029;-59
2022/03/29 05:02:08;;;;;;;58.45;37.20;;;;;;;5.29;100.00;161950.03;5070737;28;20041;-58
2022/03/29 05:04:33;;;;;;;51.60;35.78;;;;;;;5.24;100.00;161936.59;5072652;28;20028;-59
2022/03/29 05:06:59;;;;;;;53.83;38.20;;;;;;;5.19;100.00;161924.50;5070570;28;20036;-59
2022/03/29 05:09:24;;;;;;;57.95;35.90;;;;;;;5.13;100.00;161908.34;5072297;28;20092;-59
2022/03/29 05:11:49;;;;;;;49.38;34.47;;;;;;;5.19;100.00;161923.13;5070957;28;20043;-59
2022/03/29 05:14:15;;;;;;;55.10;39.25;;;;;;;5.14;100.00;161911.00;5070849;28;20091;-59
2022/03/29 05:16:40;;;;;;;51.97;36.50;;;;;;;5.12;100.00;161904.28;5070971;28;20036;-59
2022/03/29 05:19:06;;;;;;;57.80;36.22;;;;;;;5.07;100.00;161893.53;5072183;28;20021;-59
2022/03/29 05:21:31;;;;;;;62.28;38.47;;;;;;;5.05;100.00;161888.16;5068999;28;20044;-59
2022/03/29 05:23:57;;;;;;;53.38;35.03;;;;;;;5.03;100.00;161881.44;5072011;28;20078;-59
2022/03/29 05:26:22;;;;;;;49.85;35.92;;;;;;;4.83;100.00;161828.97;5069305;28;20051;-59
2022/03/29 05:28:47;;;;;;;52.22;37.58;;;;;;;5.01;100.00;161877.41;5071800;28;20024;-59
2022/03/29 05:31:13;;;;;;;66.63;38.80;;;;;;;5.01;100.00;161876.03;5070361;28;20419;-59
2022/03/29 05:33:38;;;;;;;65.45;38.78;;;;;;;4.97;100.00;161866.63;5071883;28;20075;-59
2022/03/29 05:36:04;;;;;;;63.00;45.08;;;;;;;5.01;100.00;161876.03;5070160;28;20021;-59
2022/03/29 05:38:29;;;;;;;61.67;37.17;;;;;;;5.02;100.00;161880.13;5071635;28;20039;-59
2022/03/29 05:40:54;;;;;;;60.75;41.85;;;;;;;5.06;100.00;161889.53;5070243;28;20024;-60
2022/03/29 05:43:20;;;;;;;58.60;41.08;;;;;;;5.02;100.00;161880.13;5071140;28;20020;-59
2022/03/29 05:48:51;;;;;;;61.20;43.22;;;;;;;5.05;100.00;161888.16;5062229;28;20020;-58
2022/03/29 05:48:52;;;;;;;59.83;42.30;;;;;;;5.07;100.00;161892.16;5060117;28;20040;-59
2022/03/29 05:51:18;;;;;;;63.45;40.70;;;;;;;5.01;100.00;161877.41;5059478;28;20508;-59
2022/03/29 05:53:43;;;;;;;63.67;41.30;;;;;;;5.14;100.00;161911.00;5059880;28;20020;-58
2022/03/29 05:56:08;;;;;;;62.50;40.60;;;;;;;5.13;100.00;161906.97;5059956;28;20024;-59
2022/03/29 05:58:34;;;;;;;75.00;48.20;;;;;;;5.13;100.00;161906.97;5060607;28;20021;-58
2022/03/29 06:00:59;;;;;;;73.40;46.30;;;;;;;5.02;100.00;161880.13;5058781;28;20036;-59
2022/03/29 06:03:25;;;;;;;72.30;47.00;;;;;;;5.07;100.00;161892.16;5061645;28;20031;-59
2022/03/29 06:05:51;;;;;;;65.82;45.50;;;;;;;5.06;100.00;161890.84;5060022;28;20025;-59
2022/03/29 06:08:16;;;;;;;75.78;47.60;;;;;;;5.13;100.00;161906.97;5058696;28;20064;-59
2022/03/29 06:10:42;;;;;;;82.20;51.17;;;;;;;5.14;100.00;161909.69;5061791;28;20384;-59
2022/03/29 06:13:08;;;;;;;81.05;47.33;;;;;;;5.17;100.00;161919.09;5054516;28;20507;-59
2022/03/29 06:15:34;;;;;;;79.78;50.30;;;;;;;5.24;100.00;161936.59;5051208;28;20086;-58
2022/03/29 06:18:00;;;;;;;81.78;49.35;;;;;;;5.16;100.00;161916.41;5049844;28;20120;-58
2022/03/29 06:20:25;;;;;;;72.40;46.88;;;;;;;5.20;100.00;161925.81;5050717;28;20029;-58
2022/03/29 06:22:51;;;;;;;77.00;47.08;;;;;;;5.24;100.00;161937.91;5049653;28;20045;-59
2022/03/29 06:25:16;;;;;;;77.18;49.13;;;;;;;5.39;100.00;161975.59;5050870;28;20396;-57
2022/03/29 06:27:42;;;;;;;73.57;46.97;;;;;;;5.29;100.00;161948.72;5049361;28;20033;-57
2022/03/29 06:30:08;;;;;;;79.80;47.53;;;;;;;5.22;100.00;161932.53;5050729;28;20029;-57
2022/03/29 06:32:43;;;;;;;81.20;52.38;;;;;;;5.29;100.00;161948.72;5049000;28;20124;-57
2022/03/29 06:35:08;;;;;;;87.28;55.92;;;;;;;5.33;100.00;161960.78;5050194;28;20107;-57
2022/03/29 06:37:34;;;;;;;78.28;51.90;;;;;;;5.28;100.00;161947.34;5049565;28;20407;-57
2022/03/29 06:39:59;;;;;;;73.82;48.10;;;;;;;5.26;100.00;161941.94;5049827;28;20044;-57
2022/03/29 06:42:24;;;;;;;77.72;50.88;;;;;;;5.23;100.00;161933.91;5049014;28;20519;-56
2022/03/29 06:44:50;;;;;;;82.25;54.45;;;;;;;5.16;100.00;161915.06;5050814;28;20411;-57
2022/03/29 06:47:16;;;;;;;84.35;49.70;;;;;;;5.19;100.00;161923.13;5049328;28;20037;-57
2022/03/29 06:49:41;;;;;;;81.05;48.97;;;;;;;5.33;100.00;161959.44;5050602;28;20033;-56
2022/03/29 06:52:07;;;;;;;89.70;55.95;;;;;;;5.43;100.00;161985.00;5049230;28;20033;-57
2022/03/29 06:54:32;;;;;;;80.47;50.58;;;;;;;5.54;100.00;162014.63;5050786;28;20017;-57
2022/03/29 06:56:58;;;;;;;70.18;48.60;;;;;;;5.45;100.00;161990.41;5049127;28;20562;-57
2022/03/29 06:59:23;;;;;;;78.10;47.70;;;;;;;5.60;100.00;162030.75;5050528;28;20033;-57
2022/03/29 07:01:49;;;;;;;68.18;45.03;;;;;;;5.59;100.00;162028.06;5049009;28;20033;-57
2022/03/29 07:04:15;;;;;;;75.70;51.03;;;;;;;5.67;100.00;162049.59;5050181;28;20385;-57
2022/03/29 07:06:40;;;;;;;68.50;46.40;;;;;;;5.75;100.00;162068.44;5049171;28;20033;-57
2022/03/29 07:11:49;;;;;;;65.57;41.97;;;;;;;5.60;100.00;162030.75;5049416;28;20333;-57
2022/03/29 07:14:14;;;;;;;63.17;41.40;;;;;;;5.65;100.00;162044.19;5050233;28;20252;-57
2022/03/29 07:16:41;;;;;;;68.63;45.28;;;;;;;5.56;100.00;162019.97;5046639;28;20040;-56
2022/03/29 07:19:10;;;;;;;64.20;41.53;;;;;;;5.52;100.00;162010.56;5050577;28;20029;-57
2022/03/29 07:21:39;;;;;;;66.70;45.55;;;;;;;5.66;100.00;162046.91;5049199;28;20407;-57
2022/03/29 07:24:07;;;;;;;;;;;;;;;5.48;100.00;161998.44;5051480;28;20108;-57
2022/03/29 07:26:34;;;;;;;66.85;38.80;;;;;;;5.50;100.00;162003.81;5048952;28;19919;-57
2022/03/29 07:29:00;;;;;;;59.65;41.45;;;;;;;5.60;100.00;162030.75;5063134;28;20060;-57
2022/03/29 07:31:25;;;;;;;65.18;41.50;;;;;;;5.73;100.00;162064.41;5054054;28;20143;-57
2022/03/29 07:33:51;;;;;;;67.38;42.47;;;;;;;5.85;100.00;162095.31;5049899;28;20507;-57
2022/03/29 07:36:16;;;;;;;61.67;38.45;;;;;;;5.48;100.00;161998.44;5051929;28;20040;-57
2022/03/29 07:38:41;;;;;;;63.28;40.72;;;;;;;5.51;100.00;162006.53;5073308;28;20031;-57
2022/03/29 07:41:07;;;;;;;59.85;38.10;;;;;;;5.51;100.00;162007.84;5072131;28;20118;-57
2022/03/29 07:43:32;;;;;;;67.15;42.08;;;;;;;5.47;100.00;161997.13;5073898;28;20028;-57
2022/03/29 07:45:58;;;;;;;55.35;36.47;;;;;;;5.83;100.00;162089.97;5064501;28;20029;-57
2022/03/29 07:48:24;;;;;;;61.75;41.50;;;;;;;5.97;100.00;162127.63;5053331;28;20029;-57
2022/03/29 07:50:50;;;;;;;57.80;35.03;;;;;;;6.11;100.00;162162.66;5053919;28;20024;-57
2022/03/29 07:53:15;;;;;;;55.75;36.67;;;;;;;5.90;100.00;162107.41;5052385;28;20055;-57
2022/03/29 07:55:40;;;;;;;52.80;34.30;;;;;;;5.47;100.00;161995.78;5053455;28;20491;-57
2022/03/29 07:58:06;;;;;;;54.80;35.75;;;;;;;5.77;100.00;162073.81;5052436;28;20048;-57
2022/03/29 08:00:32;;;;;;;85.82;42.15;;;;;;;5.84;100.00;162092.66;5053587;28;20362;-57
2022/03/29 08:02:59;;;;;;;52.42;33.15;;;;;;;6.05;100.00;162146.53;5051701;28;20041;-57
2022/03/29 08:05:25;;;;;;;54.13;38.80;;;;;;;6.02;100.00;162141.13;5053449;28;20444;-57
2022/03/29 08:07:50;;;;;;;55.15;42.35;;;;;;;6.09;100.00;162157.28;5056998;28;20053;-57
2022/03/29 08:10:16;;;;;;;63.90;40.97;;;;;;;6.31;100.00;162216.50;5067159;28;20557;-57
2022/03/29 08:12:42;;;;;;;56.88;37.63;;;;;;;6.45;100.00;162252.84;5039589;28;20523;-57
2022/03/29 08:15:10;;;;;;;63.22;39.92;;;;;;;6.46;100.00;162255.56;5046409;28;20032;-57
2022/03/29 08:17:35;;;;;;;66.03;38.95;;;;;;;6.34;100.00;162224.59;5041565;28;20059;-57
2022/03/29 08:20:01;;;;;;;60.65;41.90;;;;;;;6.33;100.00;162221.91;5039421;28;20436;-57
2022/03/29 08:22:27;;;;;;;57.38;38.72;;;;;;;6.61;100.00;162293.25;5054505;28;20084;-57
2022/03/29 08:24:52;;;;;;;51.22;37.05;;;;;;;6.69;100.00;162313.44;5068615;28;20096;-57
2022/03/29 08:27:18;;;;;;;56.45;37.60;;;;;;;6.90;100.00;162369.97;5059003;28;20047;-57
2022/03/29 08:29:43;;;;;;;56.53;35.65;;;;;;;6.83;100.00;162351.13;5061732;28;20028;-57
2022/03/29 08:32:09;;;;;;;53.30;36.55;;;;;;;7.03;100.00;162402.31;5040784;28;20052;-57
2022/03/29 08:34:34;;;;;;;55.63;37.42;;;;;;;7.15;100.00;162434.63;5032782;28;20025;-57
2022/03/29 08:36:59;;;;;;;59.40;44.22;;;;;;;7.18;100.00;162442.72;5049820;28;20041;-57
2022/03/29 08:39:25;;;;;;;67.65;41.08;;;;;;;7.32;100.00;162477.75;5052133;28;20036;-57
2022/03/29 08:41:58;;;;;;;59.97;42.67;;;;;;;7.39;100.00;162496.59;5036266;28;20049;-57
2022/03/29 08:44:25;;;;;;;66.88;45.63;;;;;;;7.46;100.00;162515.44;5032749;28;20025;-57
2022/03/29 08:46:51;;;;;;;66.35;45.80;;;;;;;7.37;100.00;162491.19;5045115;28;20076;-57
2022/03/29 08:49:19;;;;;;;63.20;45.42;;;;;;;7.40;100.00;162499.28;5051160;28;20029;-56
2022/03/29 08:51:45;;;;;;;58.30;43.10;;;;;;;7.46;100.00;162516.78;5058459;28;20040;-57
2022/03/29 08:54:10;;;;;;;61.67;44.88;;;;;;;7.70;100.00;162578.75;5051815;28;20041;-56
2022/03/29 08:56:35;;;;;;;62.33;43.80;;;;;;;7.73;100.00;162586.88;5050898;28;20111;-57
2022/03/29 08:59:01;;;;;;;63.70;46.33;;;;;;;7.86;100.00;162619.19;5065122;28;20032;-57
2022/03/29 09:01:27;;;;;;;69.07;45.53;;;;;;;7.97;100.00;162648.81;5049874;28;20296;-56
2022/03/29 09:04:12;;;;;;;65.28;47.28;;;;;;;8.30;100.00;162733.75;5048365;28;20032;-57
2022/03/29 09:06:50;;;;;;;57.40;41.88;;;;;;;8.31;100.00;162737.78;5046732;28;20056;-57
2022/03/29 09:09:23;;;;;;;66.03;45.67;;;;;;;8.80;100.00;162864.53;5056800;28;20080;-57
2022/03/29 09:11:50;;;;;;;62.47;43.60;;;;;;;8.35;100.00;162747.22;5067435;28;20032;-57
2022/03/29 09:14:16;;;;;;;66.78;49.15;;;;;;;7.84;100.00;162615.16;5058229;28;20063;-56
2022/03/29 09:16:42;;;;;;;68.25;47.50;;;;;;;8.31;100.00;162736.41;5059164;28;20353;-57
2022/03/29 09:19:09;;;;;;;80.07;54.53;;;;;;;8.73;100.00;162847.03;5059195;28;20473;-57
2022/03/29 09:21:42;;;;;;;69.22;50.80;;;;;;;9.34;100.00;163006.16;5066962;28;20032;-57
2022/03/29 09:24:17;;;;;;;71.20;51.95;;;;;;;9.03;100.00;162926.56;5071483;28;20028;-57
2022/03/29 09:26:46;;;;;;;66.88;47.03;;;;;;;8.84;100.00;162876.66;5060605;28;20036;-57
2022/03/29 09:29:19;;;;;;;61.75;47.33;;;;;;;8.51;100.00;162789.03;5057491;28;20025;-57
2022/03/29 09:31:46;;;;;;;71.70;49.45;;;;;;;8.44;100.00;162771.50;5065972;28;20079;-57
2022/03/29 09:34:19;;;;;;;75.93;49.20;;;;;;;8.32;100.00;162740.47;5065998;28;20020;-57
2022/03/29 09:36:49;;;;;;;74.78;53.88;;;;;;;8.16;100.00;162698.66;5052232;28;20495;-57
2022/03/29 09:39:35;;;;;;;69.80;49.58;;;;;;;8.46;100.00;162775.50;5065805;28;20536;-57
2022/03/29 09:42:11;;;;;;;70.13;50.65;;;;;;;8.36;100.00;162749.91;5061665;28;20503;-57
2022/03/29 09:44:42;;;;;;;62.03;46.20;;;;;;;8.53;100.00;162795.75;5055084;28;20095;-57
2022/03/29 09:47:11;;;;;;;73.10;53.53;;;;;;;9.17;100.00;162962.97;5038227;28;20035;-57
2022/03/29 09:49:56;;;;;;;66.40;50.38;;;;;;;10.01;100.00;163181.53;5063419;28;20024;-57
2022/03/29 09:52:26;;;;;;;61.85;46.78;;;;;;;10.46;100.00;163298.97;5064274;28;20503;-57
2022/03/29 09:55:25;;;;;;;61.78;48.20;;;;;;;10.65;100.00;163347.56;5054327;28;20108;-57
2022/03/29 09:58:00;;;;;;;70.20;51.97;;;;;;;10.35;100.00;163270.56;5058116;28;20554;-57
2022/03/29 10:00:28;;;;;;;77.63;49.30;;;;;;;10.43;100.00;163292.22;5065634;28;20475;-57
2022/03/29 10:02:54;;;;;;;57.80;45.35;;;;;;;9.56;100.00;163064.13;5064648;28;20041;-57
2022/03/29 10:05:19;;;;;;;65.53;46.97;;;;;;;10.15;100.00;163219.28;5060945;28;20431;-57
2022/03/29 10:09:25;;;;;;;65.63;51.20;;;;;;;10.67;100.00;163352.94;5058483;28;20051;-57
2022/03/29 10:10:48;;;;;;;64.47;47.80;;;;;;;11.31;100.00;163521.72;5049995;28;20033;-57
2022/03/29 10:13:16;;;;;;;56.53;43.22;;;;;;;12.01;100.00;163705.47;5046758;28;20064;-57
2022/03/29 10:15:42;;;;;;;56.63;45.30;;;;;;;13.08;100.00;163985.22;5050726;28;20017;-57
2022/03/29 10:18:08;;;;;;;58.05;44.60;;;;;;;13.60;100.00;164121.78;5061017;28;20040;-57
2022/03/29 10:20:35;;;;;;;49.83;40.00;;;;;;;13.11;100.00;163993.28;5071068;28;20047;-57
2022/03/29 10:23:01;;;;;;;47.97;39.22;;;;;;;13.44;100.00;164078.56;5069487;28;20032;-57
2022/03/29 10:25:27;;;;;;;53.30;40.38;;;;;;;13.87;100.00;164192.16;5068983;28;20032;-57
2022/03/29 10:27:55;;;;;;;44.58;35.83;;;;;;;13.86;100.00;164188.06;5060364;28;20048;-57
2022/03/29 10:30:32;;;;;;;47.72;36.60;;;;;;;13.85;100.00;164185.41;5058259;28;20024;-57
2022/03/29 10:33:17;;;;;;;48.13;37.20;;;;;;;13.32;100.00;164048.75;5067552;28;20040;-57
2022/03/29 10:36:03;;;;;;;38.83;32.03;;;;;;;13.36;100.00;164056.88;5058046;28;20476;-57
2022/03/29 10:38:43;;;;;;;49.33;38.28;;;;;;;13.30;100.00;164043.31;5067010;28;20129;-57
2022/03/29 10:41:26;;;;;;;39.60;34.45;;;;;;;13.19;100.00;164013.59;5067610;28;20056;-57
2022/03/29 10:44:05;;;;;;;44.67;36.15;;;;;;;13.42;100.00;164073.13;5068399;28;20036;-56
2022/03/29 10:46:46;;;;;;;45.33;35.72;;;;;;;12.64;100.00;163868.97;5068040;28;20787;-56
2022/03/29 10:49:32;;;;;;;44.05;34.22;;;;;;;12.61;100.00;163862.22;5068682;28;20033;-56
2022/03/29 10:52:19;;;;;;;42.83;33.92;;;;;;;13.69;100.00;164143.44;5069259;28;20032;-57
2022/03/29 10:54:45;;;;;;;43.10;34.20;;;;;;;12.98;100.00;163959.53;5070092;28;20028;-56
2022/03/29 10:57:14;;;;;;;50.38;34.20;;;;;;;13.44;100.00;164078.56;5069073;28;20032;-57
2022/03/29 10:59:39;;;;;;;42.70;36.47;;;;;;;14.03;100.00;164232.72;5070457;28;20487;-57
2022/03/29 11:02:15;;;;;;;40.50;34.05;;;;;;;14.27;100.00;164297.63;5068400;28;20123;-56
2022/03/29 11:04:59;;;;;;;40.95;31.33;;;;;;;13.94;100.00;164211.09;5070721;28;20033;-57
2022/03/29 11:07:24;;;;;;;47.50;31.38;;;;;;;14.47;100.00;164349.06;5068485;28;20037;-57
2022/03/29 11:10:07;;;;;;;39.72;33.67;;;;;;;14.56;100.00;164373.38;5070223;28;20052;-56
2022/03/29 11:12:43;;;;;;;39.80;33.00;;;;;;;14.95;100.00;164474.97;5055828;28;20059;-56
2022/03/29 11:15:36;;;;;;;42.25;32.50;;;;;;;15.29;100.00;164562.94;5053645;28;20029;-56
2022/03/29 11:18:06;;;;;;;37.88;30.52;;;;;;;14.62;100.00;164386.94;5070601;28;20036;-56